KALW

Walla Walla Regional Airport

Walla Walla, Washington, USA
METAR KALW 201353Z 19009KT 10SM CLR 17/02 A3006 RMK AO2 SLP171 T01720022
Observed Flight Rules
Jul-20 @ 13:53 UTC (54 minutes ago) Visual Flight Rules
Wind Visibility Clouds
190° at 9 knots 10 miles
  • Clear skies
Temperatures Readings
Current 17°C / 63°F
Dewpoint 2°C / 36°F
Humidity 37%
Altimeter 30.06" Hg
Pressure 1017.1 hPa
Elevation 363
METAR KALW 201353Z 19009KT 10SM CLR 17/02 A3006 RMK AO2 SLP171 T01720022
Observed Flight Rules
Jul-20 @ 13:53 UTC
(54 minutes ago)
VFR
Wind Visibility
190° at 9 knots 10 miles
Clouds
  • Clear skies
Temperature Dewpoint
17°C / 63°F 2°C / 36°F
Humidity Altimeter Pressure
37% 30.06" Hg 1017.1 hPa